createdAt,value
2018-12-01T00:01:27.078Z,94.50
2018-12-01T00:03:56.227Z,94.50
2018-12-01T00:06:24.955Z,94.60
2018-12-01T00:08:54.078Z,94.80
2018-12-01T00:11:23.234Z,94.80
2018-12-01T00:13:51.993Z,95.00
2018-12-01T00:16:21.538Z,95.10
2018-12-01T00:18:50.566Z,95.50
2018-12-01T00:21:19.120Z,95.30
2018-12-01T00:23:49.230Z,95.20
2018-12-01T00:26:16.653Z,95.30
2018-12-01T00:28:45.622Z,95.20
2018-12-01T00:31:14.184Z,95.20
2018-12-01T00:33:43.193Z,94.90
2018-12-01T00:36:11.754Z,95.20
2018-12-01T00:38:40.580Z,95.30
2018-12-01T00:41:09.142Z,95.80
2018-12-01T00:43:39.996Z,95.30
2018-12-01T00:46:08.710Z,95.80
2018-12-01T00:48:37.756Z,95.80
2018-12-01T00:51:06.731Z,95.80
2018-12-01T00:53:36.026Z,95.80
2018-12-01T00:56:04.662Z,96.00
2018-12-01T00:58:33.537Z,96.10
2018-12-01T01:01:02.131Z,95.80
2018-12-01T01:03:30.914Z,95.90
2018-12-01T01:06:01.010Z,95.80
2018-12-01T01:08:29.565Z,96.10
2018-12-01T01:10:58.410Z,95.80
2018-12-01T01:13:27.086Z,95.80
2018-12-01T01:15:55.720Z,95.80
2018-12-01T01:18:24.444Z,95.80
2018-12-01T01:20:53.335Z,95.80
2018-12-01T01:23:21.989Z,95.80
2018-12-01T01:25:51.318Z,96.10
2018-12-01T01:28:19.826Z,95.80
2018-12-01T01:30:48.695Z,96.10
2018-12-01T01:33:30.306Z,95.80
2018-12-01T01:35:58.902Z,96.20
2018-12-01T01:38:28.030Z,95.80
2018-12-01T01:41:01.899Z,96.50
2018-12-01T01:43:31.170Z,96.70
2018-12-01T01:45:59.695Z,96.40
2018-12-01T01:48:28.921Z,96.70
2018-12-01T01:50:57.476Z,96.50
2018-12-01T01:53:26.409Z,96.80
2018-12-01T01:55:55.015Z,96.20
2018-12-01T01:58:23.895Z,96.60
2018-12-01T02:00:52.523Z,96.90
2018-12-01T02:03:21.267Z,97.00
2018-12-01T02:05:49.779Z,96.40
2018-12-01T02:08:19.018Z,96.40
2018-12-01T02:10:48.157Z,96.70
2018-12-01T02:13:16.858Z,96.60
2018-12-01T02:15:45.716Z,97.20
2018-12-01T02:18:14.277Z,96.80
2018-12-01T02:20:43.099Z,96.90
2018-12-01T02:23:12.157Z,96.80
2018-12-01T02:25:41.867Z,97.20
2018-12-01T02:28:10.658Z,96.90
2018-12-01T02:30:39.256Z,97.20
2018-12-01T02:33:07.775Z,96.70
2018-12-01T02:35:36.675Z,97.40
2018-12-01T02:38:05.914Z,97.20
2018-12-01T02:40:34.596Z,96.90
2018-12-01T02:43:03.324Z,97.00
2018-12-01T02:45:43.537Z,97.30
2018-12-01T02:48:12.361Z,97.20
2018-12-01T02:50:40.918Z,97.50
2018-12-01T02:53:09.850Z,97.40
2018-12-01T02:55:38.393Z,97.10
2018-12-01T02:58:07.046Z,97.00
2018-12-01T03:00:35.578Z,96.70
2018-12-01T03:03:04.440Z,97.20
2018-12-01T03:05:33.229Z,97.30
2018-12-01T03:08:02.050Z,97.20
2018-12-01T03:10:30.587Z,97.60
2018-12-01T03:12:59.478Z,97.50
2018-12-01T03:15:28.062Z,97.60
2018-12-01T03:17:56.770Z,97.60
2018-12-01T03:20:26.063Z,97.70
2018-12-01T03:22:55.091Z,97.00
2018-12-01T03:25:24.694Z,97.80
2018-12-01T03:27:54.715Z,97.80
2018-12-01T03:30:25.547Z,97.60
2018-12-01T03:32:54.950Z,97.90
2018-12-01T03:35:24.681Z,97.60
2018-12-01T03:37:55.235Z,97.10
2018-12-01T03:40:24.181Z,97.60
2018-12-01T03:42:53.576Z,97.70
2018-12-01T03:45:23.710Z,98.30
2018-12-01T03:47:52.250Z,98.60
2018-12-01T03:50:22.417Z,98.70
2018-12-01T03:52:52.685Z,99.20
2018-12-01T03:55:26.317Z,99.20
2018-12-01T03:57:54.978Z,99.20
2018-12-01T04:00:28.803Z,98.90
2018-12-01T04:02:58.276Z,99.30
2018-12-01T04:05:27.222Z,99.30
2018-12-01T04:07:56.477Z,99.30
2018-12-01T04:10:25.395Z,99.30
2018-12-01T04:12:54.705Z,99.30
2018-12-01T04:15:23.351Z,99.30
2018-12-01T04:17:52.238Z,98.90
2018-12-01T04:20:20.931Z,99.10
2018-12-01T04:22:49.881Z,99.10
2018-12-01T04:25:18.688Z,99.00
2018-12-01T04:27:47.217Z,99.10
2018-12-01T04:30:32.024Z,99.30
2018-12-01T04:33:00.729Z,99.30
2018-12-01T04:35:29.281Z,99.30
2018-12-01T04:37:58.147Z,99.30
2018-12-01T04:40:26.724Z,99.30
2018-12-01T04:42:56.107Z,98.90
2018-12-01T04:45:25.593Z,99.00
2018-12-01T04:47:54.144Z,99.00
2018-12-01T04:50:22.905Z,98.90
2018-12-01T04:52:53.136Z,98.60
2018-12-01T04:55:22.067Z,98.90
2018-12-01T04:57:51.278Z,99.20
2018-12-01T05:00:21.002Z,99.20
2018-12-01T05:02:50.713Z,99.30
2018-12-01T05:05:21.034Z,99.50
2018-12-01T05:07:50.196Z,99.80
2018-12-01T05:10:20.127Z,99.90
2018-12-01T05:12:49.345Z,99.90
2018-12-01T05:15:19.159Z,99.80
2018-12-01T05:17:48.161Z,99.90
2018-12-01T05:20:23.603Z,99.90
2018-12-01T05:22:53.491Z,99.90
2018-12-01T05:25:22.872Z,99.90
2018-12-01T05:27:51.964Z,99.90
2018-12-01T05:30:22.633Z,99.90
2018-12-01T05:32:51.310Z,99.90
2018-12-01T05:35:24.195Z,99.90
2018-12-01T05:37:53.025Z,99.40
2018-12-01T05:40:22.306Z,99.80
2018-12-01T05:42:51.223Z,99.80
2018-12-01T05:45:21.295Z,99.80
2018-12-01T05:47:50.516Z,99.70
2018-12-01T05:50:25.774Z,99.50
2018-12-01T05:52:58.059Z,99.30
2018-12-01T05:55:27.133Z,99.20
2018-12-01T05:57:56.233Z,99.60
2018-12-01T06:00:24.803Z,99.90
2018-12-01T06:02:53.610Z,99.90
2018-12-01T06:05:22.514Z,99.90
2018-12-01T06:07:51.063Z,99.90
2018-12-01T06:10:20.903Z,99.90
2018-12-01T06:12:50.405Z,99.90
2018-12-01T06:15:19.961Z,99.90
2018-12-01T06:17:48.474Z,99.90
2018-12-01T06:20:18.680Z,99.90
2018-12-01T06:22:47.252Z,99.90
2018-12-01T06:25:17.590Z,99.90
2018-12-01T06:27:46.854Z,99.90
2018-12-01T06:30:17.863Z,99.90
2018-12-01T06:32:47.129Z,99.90
2018-12-01T06:35:15.985Z,99.90
2018-12-01T06:37:44.594Z,99.90
2018-12-01T06:40:15.576Z,99.90
2018-12-01T06:42:44.848Z,99.90
2018-12-01T06:45:15.007Z,99.90
2018-12-01T06:47:44.211Z,99.90
2018-12-01T06:50:15.429Z,99.90
2018-12-01T06:52:44.270Z,99.90
2018-12-01T06:55:13.881Z,99.90
2018-12-01T06:58:00.280Z,99.90
2018-12-01T07:00:49.646Z,99.90
2018-12-01T07:03:18.242Z,99.90
2018-12-01T07:05:47.224Z,99.90
2018-12-01T07:08:15.925Z,99.90
2018-12-01T07:10:44.782Z,99.90
2018-12-01T07:13:13.910Z,99.90
2018-12-01T07:15:42.951Z,99.90
2018-12-01T07:18:22.988Z,99.90
2018-12-01T07:20:52.156Z,99.90
2018-12-01T07:23:21.376Z,99.90
2018-12-01T07:25:50.202Z,99.90
2018-12-01T07:28:19.747Z,99.90
2018-12-01T07:30:48.278Z,99.90
2018-12-01T07:33:18.082Z,99.90
2018-12-01T07:35:46.595Z,99.90
2018-12-01T07:38:15.365Z,99.90
2018-12-01T07:40:43.946Z,99.90
2018-12-01T07:43:12.914Z,99.90
2018-12-01T07:45:42.052Z,99.90
2018-12-01T07:48:12.208Z,99.90
2018-12-01T07:50:40.732Z,99.90
2018-12-01T07:53:09.773Z,99.90
2018-12-01T07:55:38.368Z,99.90
2018-12-01T07:58:07.904Z,99.90
2018-12-01T08:00:36.460Z,99.90
2018-12-01T08:03:05.490Z,99.90
2018-12-01T08:05:34.359Z,99.90
2018-12-01T08:08:03.849Z,99.90
2018-12-01T08:10:32.729Z,99.90
2018-12-01T08:13:01.273Z,99.90
2018-12-01T08:15:30.179Z,99.90
2018-12-01T08:17:58.798Z,99.90
2018-12-01T08:20:28.495Z,99.90
2018-12-01T08:22:57.839Z,99.90
2018-12-01T08:25:26.990Z,99.90
2018-12-01T08:27:56.818Z,99.90
2018-12-01T08:30:28.925Z,99.90
2018-12-01T08:32:57.625Z,99.90
2018-12-01T08:35:28.008Z,99.90
2018-12-01T08:37:56.603Z,99.90
2018-12-01T08:40:26.873Z,99.90
2018-12-01T08:42:55.463Z,99.90
2018-12-01T08:45:26.037Z,99.90
2018-12-01T08:47:56.057Z,99.90
2018-12-01T08:50:25.629Z,99.90
2018-12-01T08:52:55.805Z,99.90
2018-12-01T08:55:25.385Z,99.90
2018-12-01T08:57:54.691Z,99.90
2018-12-01T09:00:25.140Z,99.90
2018-12-01T09:02:55.542Z,99.90
2018-12-01T09:05:25.859Z,99.90
2018-12-01T09:07:54.426Z,99.90
2018-12-01T09:10:23.096Z,99.90
2018-12-01T09:12:52.624Z,99.90
2018-12-01T09:15:22.984Z,99.90
2018-12-01T09:17:51.581Z,99.90
2018-12-01T09:20:20.753Z,99.90
2018-12-01T09:22:51.566Z,99.90
2018-12-01T09:25:20.731Z,99.90
2018-12-01T09:27:52.498Z,99.90
2018-12-01T09:30:24.361Z,99.90
2018-12-01T09:32:52.995Z,99.90
2018-12-01T09:35:25.871Z,99.90
2018-12-01T09:37:56.677Z,99.90
2018-12-01T09:40:30.249Z,99.90
2018-12-01T09:43:01.609Z,99.90
2018-12-01T09:45:31.770Z,99.90
2018-12-01T09:48:02.196Z,99.90
2018-12-01T09:50:37.795Z,99.90
2018-12-01T09:53:09.712Z,99.90
2018-12-01T09:55:40.578Z,99.90
2018-12-01T09:58:10.507Z,99.90
2018-12-01T10:00:40.701Z,99.90
2018-12-01T10:03:12.494Z,99.90
2018-12-01T10:05:44.580Z,99.90
2018-12-01T10:08:15.647Z,99.90
2018-12-01T10:10:51.229Z,99.90
2018-12-01T10:13:21.813Z,99.90
2018-12-01T10:15:52.778Z,99.90
2018-12-01T10:18:23.017Z,99.80
2018-12-01T10:20:53.850Z,99.80
2018-12-01T10:23:24.441Z,99.80
2018-12-01T10:25:55.508Z,99.90
2018-12-01T10:28:25.094Z,99.70
2018-12-01T10:30:54.633Z,99.80
2018-12-01T10:33:25.605Z,99.90
2018-12-01T10:35:57.042Z,99.30
2018-12-01T10:38:27.503Z,99.20
2018-12-01T10:41:00.683Z,99.00
2018-12-01T10:43:30.949Z,98.80
2018-12-01T10:46:04.404Z,98.30
2018-12-01T10:48:36.435Z,98.50
2018-12-01T10:51:07.126Z,98.30
2018-12-01T10:53:37.687Z,98.10
2018-12-01T10:56:08.212Z,98.30
2018-12-01T10:58:39.250Z,98.20
2018-12-01T11:01:14.370Z,98.30
2018-12-01T11:03:50.135Z,98.10
2018-12-01T11:06:22.555Z,98.10
2018-12-01T11:08:53.435Z,98.30
2018-12-01T11:11:24.301Z,98.50
2018-12-01T11:13:55.220Z,98.60
2018-12-01T11:16:26.448Z,98.50
2018-12-01T11:18:55.537Z,98.70
2018-12-01T11:21:24.081Z,98.40
2018-12-01T11:23:53.191Z,98.70
2018-12-01T11:26:21.981Z,98.60
2018-12-01T11:28:51.399Z,98.30
2018-12-01T11:31:20.068Z,98.30
2018-12-01T11:33:48.987Z,98.50
2018-12-01T11:36:17.845Z,98.60
2018-12-01T11:38:47.001Z,98.70
2018-12-01T11:41:16.806Z,98.50
2018-12-01T11:43:45.419Z,99.00
2018-12-01T11:46:14.118Z,99.10
2018-12-01T11:48:42.721Z,99.30
2018-12-01T11:51:13.440Z,99.30
2018-12-01T11:53:42.986Z,99.10
2018-12-01T11:56:11.631Z,99.20
2018-12-01T11:58:42.208Z,99.00
2018-12-01T12:01:10.782Z,99.20
2018-12-01T12:03:39.566Z,99.00
2018-12-01T12:06:08.626Z,99.10
2018-12-01T12:08:37.418Z,99.10
2018-12-01T12:11:06.245Z,99.10
2018-12-01T12:13:34.857Z,99.30
2018-12-01T12:16:03.980Z,99.30
2018-12-01T12:18:32.758Z,99.40
2018-12-01T12:21:01.799Z,99.20
2018-12-01T12:23:30.692Z,99.20
2018-12-01T12:26:00.129Z,99.30
2018-12-01T12:28:28.692Z,99.20
2018-12-01T12:30:57.273Z,99.10
2018-12-01T12:33:26.867Z,99.20
2018-12-01T12:35:56.115Z,99.20
2018-12-01T12:38:25.475Z,99.30
2018-12-01T12:40:54.976Z,99.70
2018-12-01T12:43:23.549Z,99.40
2018-12-01T12:45:52.102Z,99.50
2018-12-01T12:48:21.079Z,99.10
2018-12-01T12:50:53.046Z,98.90
2018-12-01T12:53:18.600Z,99.00
2018-12-01T12:55:47.132Z,99.10
2018-12-01T12:58:16.393Z,99.10
2018-12-01T13:00:44.951Z,99.20
2018-12-01T13:03:13.589Z,99.40
2018-12-01T13:05:44.553Z,99.40
2018-12-01T13:08:17.692Z,99.20
2018-12-01T13:10:46.964Z,99.00
2018-12-01T13:13:16.073Z,99.00
2018-12-01T13:15:44.729Z,99.20
2018-12-01T13:18:14.458Z,99.70
2018-12-01T13:20:44.580Z,99.90
2018-12-01T13:23:14.096Z,99.90
2018-12-01T13:25:43.197Z,99.90
2018-12-01T13:28:19.706Z,99.90
2018-12-01T13:30:51.775Z,99.90
2018-12-01T13:33:21.130Z,99.90
2018-12-01T13:35:50.626Z,99.90
2018-12-01T13:38:19.415Z,99.90
2018-12-01T13:40:48.023Z,99.90
2018-12-01T13:43:18.133Z,99.90
2018-12-01T13:45:46.794Z,99.90
2018-12-01T13:48:17.552Z,99.90
2018-12-01T13:50:46.196Z,99.90
2018-12-01T13:53:15.736Z,99.90
2018-12-01T13:55:44.568Z,99.90
2018-12-01T13:58:14.525Z,99.90
2018-12-01T14:00:43.578Z,99.90
2018-12-01T14:03:12.532Z,99.90
2018-12-01T14:05:42.309Z,99.90
2018-12-01T14:08:11.669Z,99.90
2018-12-01T14:10:42.063Z,99.90
2018-12-01T14:13:12.772Z,99.90
2018-12-01T14:15:42.265Z,99.90
2018-12-01T14:18:11.870Z,99.90
2018-12-01T14:20:40.453Z,99.90
2018-12-01T14:23:10.195Z,99.90
2018-12-01T14:25:38.847Z,99.90
2018-12-01T14:28:09.363Z,99.90
2018-12-01T14:30:37.966Z,99.90
2018-12-01T14:33:07.771Z,99.90
2018-12-01T14:35:37.424Z,99.90
2018-12-01T14:38:12.624Z,99.90
2018-12-01T14:40:42.832Z,99.90
2018-12-01T14:43:12.586Z,99.90
2018-12-01T14:45:42.080Z,99.90
2018-12-01T14:48:11.186Z,99.90
2018-12-01T14:50:39.719Z,99.90
2018-12-01T14:53:09.977Z,99.90
2018-12-01T14:55:38.589Z,99.90
2018-12-01T14:58:08.374Z,99.90
2018-12-01T15:00:37.600Z,99.90
2018-12-01T15:03:08.080Z,99.90
2018-12-01T15:05:37.606Z,99.90
2018-12-01T15:08:07.233Z,99.90
2018-12-01T15:10:36.173Z,99.90
2018-12-01T15:13:05.009Z,99.90
2018-12-01T15:15:33.759Z,99.90
2018-12-01T15:18:02.807Z,99.90
2018-12-01T15:20:31.365Z,99.90
2018-12-01T15:23:00.426Z,99.90
2018-12-01T15:25:30.076Z,99.90
2018-12-01T15:27:58.963Z,99.90
2018-12-01T15:30:29.484Z,99.90
2018-12-01T15:33:15.598Z,99.90
2018-12-01T15:35:45.279Z,99.90
2018-12-01T15:38:15.224Z,99.90
2018-12-01T15:40:47.383Z,99.90
2018-12-01T15:43:17.263Z,99.90
2018-12-01T15:45:46.454Z,99.90
2018-12-01T15:48:15.538Z,99.90
2018-12-01T15:50:45.278Z,99.90
2018-12-01T15:53:15.306Z,99.90
2018-12-01T15:55:44.510Z,99.90
2018-12-01T15:58:13.709Z,99.90
2018-12-01T16:00:43.253Z,99.90
2018-12-01T16:03:12.313Z,99.90
2018-12-01T16:05:40.896Z,99.90
2018-12-01T16:08:11.179Z,99.90
2018-12-01T16:10:39.723Z,99.90
2018-12-01T16:13:14.055Z,99.90
2018-12-01T16:15:44.381Z,99.90
2018-12-01T16:18:13.641Z,99.90
2018-12-01T16:20:42.844Z,99.90
2018-12-01T16:23:11.725Z,99.90
2018-12-01T16:25:40.707Z,99.90
2018-12-01T16:28:09.455Z,99.90
2018-12-01T16:30:40.101Z,99.90
2018-12-01T16:33:18.852Z,99.90
2018-12-01T16:35:47.130Z,99.90
2018-12-01T16:38:27.952Z,99.90
2018-12-01T16:40:59.735Z,99.90
2018-12-01T16:43:32.302Z,99.90
2018-12-01T16:46:04.943Z,99.90
2018-12-01T16:48:37.557Z,99.90
2018-12-01T16:51:09.740Z,99.90
2018-12-01T16:53:44.027Z,99.90
2018-12-01T16:56:16.579Z,99.90
2018-12-01T16:58:49.974Z,99.90
2018-12-01T17:01:21.223Z,99.90
2018-12-01T17:03:54.716Z,99.90
2018-12-01T17:06:27.565Z,99.90
2018-12-01T17:09:00.927Z,99.90
2018-12-01T17:11:32.328Z,99.90
2018-12-01T17:14:06.431Z,99.90
2018-12-01T17:16:37.247Z,99.90
2018-12-01T17:19:14.203Z,99.90
2018-12-01T17:21:45.146Z,99.90
2018-12-01T17:24:16.702Z,99.90
2018-12-01T17:26:49.200Z,99.90
2018-12-01T17:29:23.010Z,99.90
2018-12-01T17:31:51.761Z,99.90
2018-12-01T17:34:21.023Z,99.90
2018-12-01T17:36:50.479Z,99.90
2018-12-01T17:39:19.575Z,99.90
2018-12-01T17:41:48.839Z,99.90
2018-12-01T17:44:17.772Z,99.90
2018-12-01T17:46:46.348Z,99.90
2018-12-01T17:49:15.182Z,99.90
2018-12-01T17:51:44.254Z,99.90
2018-12-01T17:54:16.006Z,99.90
2018-12-01T17:56:44.559Z,99.90
2018-12-01T17:59:13.493Z,99.90
2018-12-01T18:01:42.696Z,99.90
2018-12-01T18:04:11.862Z,99.90
2018-12-01T18:06:40.751Z,99.90
2018-12-01T18:09:10.285Z,99.90
2018-12-01T18:11:39.143Z,99.90
2018-12-01T18:14:09.999Z,99.90
2018-12-01T18:16:38.644Z,99.90
2018-12-01T18:19:07.568Z,99.90
2018-12-01T18:21:36.306Z,99.90
2018-12-01T18:24:05.514Z,99.90
2018-12-01T18:26:34.208Z,99.90
2018-12-01T18:29:04.598Z,99.90
2018-12-01T18:31:33.159Z,99.90
2018-12-01T18:34:09.596Z,99.90
2018-12-01T18:36:38.205Z,99.90
2018-12-01T18:39:10.460Z,99.90
2018-12-01T18:41:41.012Z,99.90
2018-12-01T18:44:11.346Z,99.90
2018-12-01T18:46:40.991Z,99.90
2018-12-01T18:49:10.118Z,99.90
2018-12-01T18:51:40.590Z,99.90
2018-12-01T18:54:09.974Z,99.90
2018-12-01T18:56:40.309Z,99.90
2018-12-01T18:59:09.975Z,99.90
2018-12-01T19:01:38.573Z,99.90
2018-12-01T19:04:07.613Z,99.90
2018-12-01T19:06:36.428Z,99.90
2018-12-01T19:09:07.240Z,99.90
2018-12-01T19:11:36.584Z,99.90
2018-12-01T19:14:06.808Z,99.90
2018-12-01T19:16:35.367Z,99.90
2018-12-01T19:19:04.419Z,99.90
2018-12-01T19:21:33.181Z,99.90
2018-12-01T19:24:01.995Z,99.90
2018-12-01T19:26:30.512Z,99.90
2018-12-01T19:29:00.339Z,99.90
2018-12-01T19:31:29.068Z,99.90
2018-12-01T19:33:59.091Z,99.90
2018-12-01T19:36:28.456Z,99.90
2018-12-01T19:38:57.192Z,99.90
2018-12-01T19:41:26.671Z,99.90
2018-12-01T19:43:56.196Z,99.90
2018-12-01T19:46:24.901Z,99.90
2018-12-01T19:48:53.968Z,99.90
2018-12-01T19:51:22.579Z,99.90
2018-12-01T19:53:51.357Z,99.90
2018-12-01T19:56:20.530Z,99.90
2018-12-01T19:58:50.024Z,99.90
2018-12-01T20:01:18.596Z,99.90
2018-12-01T20:03:47.730Z,99.90
2018-12-01T20:06:16.286Z,99.90
2018-12-01T20:08:45.304Z,99.90
2018-12-01T20:11:14.037Z,99.90
2018-12-01T20:13:44.692Z,99.90
2018-12-01T20:16:34.240Z,99.90
2018-12-01T20:19:03.400Z,99.90
2018-12-01T20:21:33.385Z,99.90
2018-12-01T20:24:02.363Z,99.90
2018-12-01T20:26:30.919Z,99.90
2018-12-01T20:28:59.494Z,99.90
2018-12-01T20:31:28.642Z,99.90
2018-12-01T20:33:59.458Z,99.90
2018-12-01T20:36:31.472Z,99.90
2018-12-01T20:39:35.272Z,99.90
2018-12-01T20:42:06.101Z,99.90
2018-12-01T20:44:35.000Z,99.90
2018-12-01T20:47:03.750Z,99.90
2018-12-01T20:49:32.891Z,99.90
2018-12-01T20:52:01.525Z,99.90
2018-12-01T20:54:37.917Z,99.90
2018-12-01T20:57:22.752Z,99.90
2018-12-01T20:59:52.006Z,99.90
2018-12-01T21:02:20.602Z,99.90
2018-12-01T21:04:49.573Z,99.90
2018-12-01T21:07:18.167Z,99.90
2018-12-01T21:09:47.782Z,99.90
2018-12-01T21:12:16.639Z,99.90
2018-12-01T21:14:45.425Z,99.90
2018-12-01T21:17:14.077Z,99.90
2018-12-01T21:19:49.667Z,99.90
2018-12-01T21:22:18.258Z,99.90
2018-12-01T21:24:47.013Z,99.90
2018-12-01T21:27:15.569Z,99.90
2018-12-01T21:29:44.303Z,99.90
2018-12-01T21:32:12.863Z,99.90
2018-12-01T21:34:41.953Z,99.90
2018-12-01T21:37:10.523Z,99.90
2018-12-01T21:39:39.592Z,99.90
2018-12-01T21:42:08.711Z,99.90
2018-12-01T21:44:37.241Z,99.90
2018-12-01T21:47:06.464Z,99.90
2018-12-01T21:49:35.350Z,99.90
2018-12-01T21:52:03.972Z,99.90
2018-12-01T21:54:32.928Z,99.90
2018-12-01T21:57:01.955Z,99.90
2018-12-01T21:59:30.274Z,99.90
2018-12-01T22:01:59.587Z,99.90
2018-12-01T22:04:28.457Z,99.90
2018-12-01T22:06:57.350Z,99.90
2018-12-01T22:09:26.676Z,99.90
2018-12-01T22:11:55.538Z,99.90
2018-12-01T22:14:25.636Z,99.90
2018-12-01T22:16:54.218Z,99.90
2018-12-01T22:19:23.660Z,99.90
2018-12-01T22:21:52.172Z,99.90
2018-12-01T22:24:20.669Z,99.90
2018-12-01T22:26:50.171Z,99.90
2018-12-01T22:29:19.390Z,99.90
2018-12-01T22:31:49.188Z,99.90
2018-12-01T22:34:17.805Z,99.90
2018-12-01T22:36:46.692Z,99.90
2018-12-01T22:39:15.517Z,99.90
2018-12-01T22:41:44.474Z,99.90
2018-12-01T22:44:13.975Z,99.90
2018-12-01T22:46:42.874Z,99.90
2018-12-01T22:49:11.408Z,99.90
2018-12-01T22:51:40.252Z,99.90
2018-12-01T22:54:09.830Z,99.90
2018-12-01T22:56:38.661Z,99.90
2018-12-01T22:59:07.247Z,99.90
2018-12-01T23:01:36.056Z,99.90
2018-12-01T23:04:05.156Z,99.90
2018-12-01T23:06:33.911Z,99.90
2018-12-01T23:09:02.495Z,99.90
2018-12-01T23:11:31.375Z,99.90
2018-12-01T23:14:00.494Z,99.90
2018-12-01T23:16:29.142Z,99.90
2018-12-01T23:18:57.710Z,99.90
2018-12-01T23:21:26.550Z,99.90
2018-12-01T23:23:55.801Z,99.90
2018-12-01T23:26:24.694Z,99.90
2018-12-01T23:28:53.228Z,99.90
2018-12-01T23:31:22.086Z,99.90
2018-12-01T23:33:51.990Z,99.90
2018-12-01T23:36:20.507Z,99.90
2018-12-01T23:38:49.462Z,99.90
2018-12-01T23:41:18.166Z,99.90
2018-12-01T23:43:46.710Z,99.90
2018-12-01T23:46:16.643Z,99.90
2018-12-01T23:48:45.771Z,99.90
2018-12-01T23:51:14.324Z,99.90
2018-12-01T23:53:43.752Z,99.90
2018-12-01T23:56:12.489Z,99.90
2018-12-01T23:58:41.312Z,99.90
